weather.gov     
National Weather Service

Terminal Aerodrome Forecast
NWS Homepage
This page is being discontinued on March 12, 2014.
The same data is available at this site. Please update your bookmarks.
Thank you, and we apologize for the inconvenience.
Please send an email to SR-SRH.Webmaster@noaa.gov with any concerns.


Current Version
Previous Version:    01  02  03  04  05  06  07  08  09  10  11  12  13  14  15  16  17  18  19  20  21  22  23  24  25  
[Printable]
815
FTUS42 KILM 232300
TAFCRE
TAF
KCRE 232326Z 2400/2424 14010G15KT 3SM RA BR BKN006 OVC015
     FM240200 17017KT 4SM -SHRA BR BKN010 OVC025
      TEMPO 2402/2406 20015G30KT 1SM +TSRA BKN014CB
     FM240700 20012KT P6SM VCSH SCT006 BKN016
      TEMPO 2407/2411 1SM BR BKN004
     FM241100 21012G16KT 5SM BR BKN006
     FM241600 21011KT P6SM SCT007 OVC015=


U.S. Dept. of Commerce
NOAA National Weather Service
1325 East West Highway
Silver Spring, MD 20910
E-mail: w-nws.webmaster@noaa.gov
Page last modified: May 16, 2007
NATIONAL WEATHER SERVICE: for Safety, for Work, for Fun - FOR LIFE